EFJY

Jyvaskyla Airport

Jyväskylän Maalaiskunta, Finland
METAR EFJY 180020Z AUTO 21005KT 170V260 9999 OVC007 12/10 Q1012
Observed Flight Rules
Oct-18 @ 00:20 UTC (23 minutes ago) Instrument Flight Rules
Wind Visibility Clouds
210° at 5 knots 10,000+ meters
  • Overcast at 700' AGL
Temperatures Readings
Current 12°C / 54°F
Dewpoint 10°C / 50°F
Humidity 88%
Altimeter 29.88" Hg
Pressure 1012 hPa
Elevation 145
METAR EFJY 180020Z AUTO 21005KT 170V260 9999 OVC007 12/10 Q1012
Observed Flight Rules
Oct-18 @ 00:20 UTC
(23 minutes ago)
IFR
Wind Visibility
210° at 5 knots 10,000+ meters
Clouds
  • Overcast at 700' AGL
Temperature Dewpoint
12°C / 54°F 10°C / 50°F
Humidity Altimeter Pressure
88% 29.88" Hg 1012 hPa